Time;durP1;ratioP1;P1;durP2;ratioP2;P2;SDS_P1;SDS_P2;PMS_P1;PMS_P2;Temp;Humidity;BMP_temperature;BMP_pressure;BME280_temperature;BME280_humidity;BME280_pressure;Samples;Min_cycle;Max_cycle;Signal;HPM_P1;HPM_P2
2022/08/31 00:05:26;;;;;;;1.77;1.63;;;18.40;99.90;;;;;;4990982;28;20199;-49
2022/08/31 00:07:53;;;;;;;2.40;1.70;;;18.20;99.90;;;;;;4990338;28;20299;-51
2022/08/31 00:10:26;;;;;;;2.13;1.70;;;18.10;99.90;;;;;;4988359;28;20234;-50
2022/08/31 00:13:04;;;;;;;3.30;1.87;;;18.10;99.90;;;;;;4989180;28;20918;-51
2022/08/31 00:15:34;;;;;;;1.93;1.43;;;18.00;99.90;;;;;;4988352;28;20566;-51
2022/08/31 00:18:01;;;;;;;3.20;2.07;;;18.00;99.90;;;;;;4987430;28;20213;-51
2022/08/31 00:20:28;;;;;;;1.60;1.50;;;18.00;99.90;;;;;;4989552;28;20258;-51
2022/08/31 00:23:02;;;;;;;2.27;1.57;;;17.90;99.90;;;;;;4991673;28;20699;-48
2022/08/31 00:25:30;;;;;;;2.23;2.03;;;18.00;99.90;;;;;;4995076;28;20214;-48
2022/08/31 00:27:57;;;;;;;4.33;1.80;;;18.00;99.90;;;;;;4989653;28;20256;-51
2022/08/31 00:30:24;;;;;;;5.50;1.90;;;18.00;99.90;;;;;;4985018;28;20292;-50
2022/08/31 00:32:51;;;;;;;2.07;1.80;;;17.80;99.90;;;;;;4997002;28;20307;-49
2022/08/31 00:35:18;;;;;;;3.27;1.53;;;17.90;99.90;;;;;;4989349;28;20280;-51
2022/08/31 00:37:45;;;;;;;1.80;1.60;;;17.90;99.90;;;;;;4988327;28;20260;-50
2022/08/31 00:40:12;;;;;;;2.40;1.67;;;17.80;99.90;;;;;;4990737;28;20291;-50
2022/08/31 00:42:39;;;;;;;4.40;1.87;;;17.80;99.90;;;;;;4986331;28;20627;-49
2022/08/31 00:45:07;;;;;;;3.73;1.87;;;17.80;99.90;;;;;;4990666;28;20229;-49
2022/08/31 00:47:35;;;;;;;2.50;1.80;;;17.70;99.90;;;;;;4990603;28;20609;-49
2022/08/31 00:50:06;;;;;;;3.23;1.63;;;17.70;99.90;;;;;;4993162;28;20651;-52
2022/08/31 00:52:40;;;;;;;3.63;1.77;;;17.70;99.90;;;;;;4991164;28;20296;-49
2022/08/31 00:55:12;;;;;;;4.17;1.90;;;17.60;99.90;;;;;;4993052;28;20229;-50
2022/08/31 00:57:43;;;;;;;3.00;1.80;;;17.70;99.90;;;;;;4991924;28;20742;-51
2022/08/31 01:00:15;;;;;;;4.73;1.87;;;17.60;99.90;;;;;;4996841;28;20333;-50
2022/08/31 01:02:42;;;;;;;2.73;2.17;;;17.70;99.90;;;;;;4993327;28;20210;-50
2022/08/31 01:05:10;;;;;;;2.00;1.80;;;17.60;99.90;;;;;;4995775;28;20205;-50
2022/08/31 01:07:37;;;;;;;2.93;2.07;;;17.70;99.90;;;;;;4990527;28;20209;-50
2022/08/31 01:10:06;;;;;;;2.17;1.90;;;17.70;99.90;;;;;;4991794;28;20522;-51
2022/08/31 01:12:33;;;;;;;3.10;2.20;;;17.50;99.90;;;;;;4991844;28;20612;-51
2022/08/31 01:15:03;;;;;;;2.43;2.07;;;17.40;99.90;;;;;;4993637;28;20233;-50
2022/08/31 01:17:32;;;;;;;5.10;1.87;;;17.50;99.90;;;;;;4993310;28;20898;-50
2022/08/31 01:20:19;;;;;;;3.20;2.00;;;17.50;99.90;;;;;;4992968;28;20213;-50
2022/08/31 01:23:06;;;;;;;2.67;1.83;;;17.50;99.90;;;;;;4993048;28;20275;-50
2022/08/31 01:25:35;;;;;;;2.90;1.87;;;17.60;99.90;;;;;;4992143;28;20205;-49
2022/08/31 01:28:07;;;;;;;2.40;2.20;;;17.50;99.90;;;;;;4993234;28;20206;-51
2022/08/31 01:30:35;;;;;;;3.53;2.00;;;17.40;99.90;;;;;;4989515;28;20209;-51
2022/08/31 01:33:02;;;;;;;3.03;2.17;;;17.30;99.90;;;;;;4996144;28;20285;-49
2022/08/31 01:35:31;;;;;;;5.63;2.30;;;17.30;99.90;;;;;;4992944;28;20211;-49
2022/08/31 01:37:58;;;;;;;3.77;2.33;;;17.30;99.90;;;;;;4991701;28;20334;-50
2022/08/31 01:40:33;;;;;;;3.47;2.30;;;17.30;99.90;;;;;;4991979;28;20201;-48
2022/08/31 01:43:00;;;;;;;2.97;2.23;;;17.30;99.90;;;;;;4995642;28;20194;-49
2022/08/31 01:45:27;;;;;;;3.47;2.13;;;17.20;99.90;;;;;;4993743;28;20237;-50
2022/08/31 01:47:54;;;;;;;2.43;2.00;;;17.30;99.90;;;;;;4989865;28;20761;-50
2022/08/31 01:50:21;;;;;;;2.60;2.40;;;17.30;99.90;;;;;;4991951;28;20256;-50
2022/08/31 01:52:47;;;;;;;4.70;2.40;;;17.30;99.90;;;;;;4996714;28;20201;-50
2022/08/31 01:55:14;;;;;;;2.30;2.10;;;17.30;99.90;;;;;;4988548;28;20755;-50
2022/08/31 01:57:41;;;;;;;2.23;2.03;;;17.40;99.90;;;;;;4994465;28;20329;-50
2022/08/31 02:00:09;;;;;;;2.87;2.20;;;17.30;99.90;;;;;;4988523;28;20202;-49
2022/08/31 02:02:36;;;;;;;3.17;2.03;;;17.30;99.90;;;;;;4990531;28;20218;-50
2022/08/31 02:05:04;;;;;;;3.03;2.10;;;17.30;99.90;;;;;;4991103;28;20304;-49
2022/08/31 02:07:31;;;;;;;5.10;2.10;;;17.20;99.90;;;;;;4993386;28;20596;-52
2022/08/31 02:09:58;;;;;;;4.03;1.97;;;17.20;99.90;;;;;;4989994;28;20661;-51
2022/08/31 02:12:25;;;;;;;2.67;2.00;;;17.30;99.90;;;;;;4993597;28;20198;-50
2022/08/31 02:14:52;;;;;;;4.63;2.13;;;17.30;99.90;;;;;;4989214;28;20297;-51
2022/08/31 02:17:19;;;;;;;3.03;2.57;;;17.20;99.90;;;;;;4991243;28;20663;-50
2022/08/31 02:19:46;;;;;;;3.07;2.40;;;17.00;99.90;;;;;;4990096;28;20284;-49
2022/08/31 02:22:12;;;;;;;2.87;2.07;;;17.00;99.90;;;;;;4993454;28;20313;-48
2022/08/31 02:24:39;;;;;;;2.20;2.00;;;17.00;99.90;;;;;;4992903;28;20221;-51
2022/08/31 02:27:06;;;;;;;3.07;2.50;;;16.90;99.90;;;;;;4991634;28;20246;-50
2022/08/31 02:29:33;;;;;;;2.67;2.30;;;16.90;99.90;;;;;;4988511;28;20232;-51
2022/08/31 02:32:00;;;;;;;2.80;2.27;;;16.90;99.90;;;;;;4987664;28;20240;-50
2022/08/31 02:34:28;;;;;;;4.93;2.53;;;16.80;99.90;;;;;;4992377;28;20267;-52
2022/08/31 02:36:55;;;;;;;2.13;1.77;;;16.90;99.90;;;;;;4990665;28;20743;-49
2022/08/31 02:39:22;;;;;;;2.60;2.00;;;16.90;99.90;;;;;;4989607;28;20214;-50
2022/08/31 02:41:49;;;;;;;2.60;2.00;;;17.00;99.90;;;;;;4992239;28;20267;-51
2022/08/31 02:44:16;;;;;;;2.27;2.07;;;16.90;99.90;;;;;;4991952;28;20297;-49
2022/08/31 02:46:43;;;;;;;2.67;2.17;;;16.90;99.90;;;;;;4990452;28;20292;-49
2022/08/31 02:49:10;;;;;;;2.63;2.17;;;16.80;99.90;;;;;;4988608;28;20235;-50
2022/08/31 02:51:41;;;;;;;3.17;2.00;;;16.80;99.90;;;;;;4985860;28;20198;-51
2022/08/31 02:54:08;;;;;;;4.40;2.40;;;16.80;99.90;;;;;;4991191;28;20279;-49
2022/08/31 02:56:35;;;;;;;4.27;2.33;;;16.90;99.90;;;;;;4991696;28;20262;-51
2022/08/31 02:59:02;;;;;;;3.40;2.30;;;16.70;99.90;;;;;;4993748;28;20657;-51
2022/08/31 03:01:29;;;;;;;3.63;1.97;;;16.70;99.90;;;;;;4991859;28;20222;-51
2022/08/31 03:03:56;;;;;;;3.00;2.17;;;16.90;99.90;;;;;;4990364;28;20588;-49
2022/08/31 03:06:23;;;;;;;2.50;2.10;;;16.90;99.90;;;;;;4989994;28;20195;-51
2022/08/31 03:08:50;;;;;;;5.13;1.90;;;16.90;99.90;;;;;;4990464;28;20201;-51
2022/08/31 03:11:18;;;;;;;3.00;2.00;;;16.90;99.90;;;;;;4987103;28;20614;-51
2022/08/31 03:13:44;;;;;;;6.13;2.30;;;16.70;99.90;;;;;;4993542;28;21303;-50
2022/08/31 03:16:14;;;;;;;2.90;2.30;;;16.70;99.90;;;;;;4991184;28;20226;-49
2022/08/31 03:18:41;;;;;;;2.87;2.27;;;16.70;99.90;;;;;;4988823;28;20580;-50
2022/08/31 03:21:08;;;;;;;2.10;1.90;;;16.60;99.90;;;;;;4988264;28;20655;-50
2022/08/31 03:23:35;;;;;;;2.40;2.20;;;16.70;99.90;;;;;;4991093;28;20298;-50
2022/08/31 03:26:04;;;;;;;1.97;1.77;;;16.70;99.90;;;;;;4991008;28;20751;-51
2022/08/31 03:28:37;;;;;;;3.17;2.00;;;16.70;99.90;;;;;;4990410;28;20729;-50
2022/08/31 03:31:09;;;;;;;3.27;1.80;;;16.70;99.90;;;;;;4991809;28;20225;-50
2022/08/31 03:33:36;;;;;;;3.47;2.17;;;16.60;99.90;;;;;;4994645;28;20216;-51
2022/08/31 03:36:04;;;;;;;3.57;2.23;;;16.60;99.90;;;;;;4991890;28;20198;-51
2022/08/31 03:38:31;;;;;;;2.50;2.13;;;16.60;99.90;;;;;;4990700;28;20205;-51
2022/08/31 03:41:00;;;;;;;3.63;1.97;;;16.60;99.90;;;;;;4990273;28;20264;-50
2022/08/31 03:43:27;;;;;;;3.23;2.03;;;16.60;99.90;;;;;;4984564;28;20674;-52
2022/08/31 03:45:53;;;;;;;4.73;2.17;;;16.50;99.90;;;;;;4993441;28;20230;-52
2022/08/31 03:48:20;;;;;;;3.17;2.40;;;16.60;99.90;;;;;;4988104;28;20214;-48
2022/08/31 03:50:47;;;;;;;5.30;2.00;;;16.50;99.90;;;;;;4986724;28;20262;-49
2022/08/31 03:53:14;;;;;;;2.03;1.87;;;16.50;99.90;;;;;;4989747;28;20296;-52
2022/08/31 03:55:48;;;;;;;2.30;1.80;;;16.50;99.90;;;;;;4989621;28;20727;-50
2022/08/31 03:58:15;;;;;;;2.03;1.83;;;16.30;99.90;;;;;;4989880;28;20300;-51
2022/08/31 04:00:43;;;;;;;4.43;2.13;;;16.40;99.90;;;;;;4994751;28;20214;-47
2022/08/31 04:03:10;;;;;;;2.17;1.80;;;16.50;99.90;;;;;;4990331;28;20230;-49
2022/08/31 04:05:42;;;;;;;5.50;1.83;;;16.40;99.90;;;;;;4992121;28;20206;-49
2022/08/31 04:08:09;;;;;;;4.13;1.97;;;16.40;99.90;;;;;;4993254;28;20198;-49
2022/08/31 04:10:38;;;;;;;4.30;1.93;;;16.30;99.90;;;;;;4988156;28;20332;-49
2022/08/31 04:13:05;;;;;;;4.47;2.07;;;16.40;99.90;;;;;;4989901;28;20206;-50
2022/08/31 04:15:34;;;;;;;4.63;1.93;;;16.30;99.90;;;;;;4983088;28;20580;-50
2022/08/31 04:18:01;;;;;;;3.10;2.27;;;16.30;99.90;;;;;;4988443;28;20210;-51
2022/08/31 04:20:31;;;;;;;3.50;1.67;;;16.30;99.90;;;;;;4986314;28;20666;-50
2022/08/31 04:22:58;;;;;;;1.73;1.63;;;16.00;99.90;;;;;;4989542;28;20217;-50
2022/08/31 04:25:25;;;;;;;3.37;1.60;;;16.00;99.90;;;;;;4987414;28;21704;-49
2022/08/31 04:27:53;;;;;;;2.20;1.50;;;16.00;99.90;;;;;;4987867;28;20310;-50
2022/08/31 04:30:23;;;;;;;2.60;1.80;;;15.90;99.90;;;;;;4994108;28;20567;-50
2022/08/31 04:32:52;;;;;;;3.10;1.70;;;15.90;99.90;;;;;;4988469;28;20208;-50
2022/08/31 04:35:19;;;;;;;2.47;1.80;;;15.90;99.90;;;;;;4990987;28;20679;-49
2022/08/31 04:37:46;;;;;;;2.40;1.87;;;15.80;99.90;;;;;;4989015;28;20205;-50
2022/08/31 04:40:19;;;;;;;2.10;1.37;;;15.80;99.90;;;;;;4984766;28;20214;-48
2022/08/31 04:42:51;;;;;;;3.27;1.50;;;16.00;99.90;;;;;;4990499;28;20240;-50
2022/08/31 04:45:18;;;;;;;2.53;1.63;;;15.90;99.90;;;;;;4989050;28;20203;-49
2022/08/31 04:47:45;;;;;;;2.63;1.40;;;15.80;99.90;;;;;;4987174;28;20206;-49
2022/08/31 04:50:15;;;;;;;1.57;1.47;;;15.80;99.90;;;;;;4988907;28;20236;-49
2022/08/31 04:52:43;;;;;;;2.43;1.43;;;15.70;99.90;;;;;;4986247;28;20212;-51
2022/08/31 04:55:28;;;;;;;1.30;1.10;;;15.70;99.90;;;;;;4990643;28;20232;-48
2022/08/31 04:57:56;;;;;;;3.63;1.43;;;15.80;99.90;;;;;;4989676;28;20298;-49
2022/08/31 05:00:23;;;;;;;1.87;1.40;;;15.90;99.90;;;;;;4991358;28;20261;-50
2022/08/31 05:02:52;;;;;;;1.60;1.50;;;15.90;99.90;;;;;;4976845;28;20245;-50
2022/08/31 05:05:19;;;;;;;3.87;1.60;;;15.80;99.90;;;;;;4989715;28;20718;-49
2022/08/31 05:07:46;;;;;;;1.40;1.30;;;15.80;99.90;;;;;;4993151;28;20288;-51
2022/08/31 05:10:13;;;;;;;2.00;1.60;;;15.70;99.90;;;;;;4990826;28;20606;-51
2022/08/31 05:12:40;;;;;;;2.23;1.30;;;15.60;99.90;;;;;;4987982;28;20413;-48
2022/08/31 05:15:07;;;;;;;1.70;1.60;;;15.60;99.90;;;;;;4986814;28;20233;-49
2022/08/31 05:17:34;;;;;;;3.57;1.67;;;15.70;99.90;;;;;;4988728;28;20650;-49
2022/08/31 05:20:01;;;;;;;1.93;1.60;;;15.70;99.90;;;;;;4628383;28;10000129;-50
2022/08/31 05:22:29;;;;;;;2.30;1.43;;;15.60;99.90;;;;;;4982672;28;20262;-51
2022/08/31 05:24:56;;;;;;;4.03;1.83;;;15.70;99.90;;;;;;4988652;28;20206;-50
2022/08/31 05:27:22;;;;;;;1.77;1.53;;;15.60;99.90;;;;;;4989906;28;20210;-51
2022/08/31 05:29:49;;;;;;;2.10;1.57;;;15.60;99.90;;;;;;4977388;28;20307;-50
2022/08/31 05:32:16;;;;;;;1.90;1.40;;;15.60;99.90;;;;;;5000572;28;20293;-51
2022/08/31 05:34:44;;;;;;;2.17;1.50;;;15.60;99.90;;;;;;4988737;28;20698;-49
2022/08/31 05:37:13;;;;;;;4.40;1.70;;;15.60;99.90;;;;;;4987471;28;20324;-51
2022/08/31 05:39:39;;;;;;;2.50;1.40;;;15.60;99.90;;;;;;4984623;28;20213;-51
2022/08/31 05:42:06;;;;;;;4.97;1.67;;;15.50;99.90;;;;;;4998530;28;20245;-50
2022/08/31 05:44:34;;;;;;;1.70;1.30;;;15.60;99.90;;;;;;5001897;28;20334;-48
2022/08/31 05:47:04;;;;;;;3.47;1.70;;;15.70;99.90;;;;;;4999173;28;20241;-52
2022/08/31 05:49:31;;;;;;;2.20;2.00;;;15.70;99.90;;;;;;4997775;28;20331;-50
2022/08/31 05:52:00;;;;;;;3.37;1.83;;;15.60;99.90;;;;;;4999334;28;20641;-50
2022/08/31 05:54:27;;;;;;;2.27;1.93;;;15.60;99.90;;;;;;4996323;28;20240;-51
2022/08/31 05:56:54;;;;;;;3.53;1.67;;;15.50;99.90;;;;;;5000129;28;20768;-50
2022/08/31 05:59:30;;;;;;;4.33;1.60;;;15.60;99.90;;;;;;4997010;28;20296;-51
2022/08/31 06:01:57;;;;;;;1.63;1.50;;;15.70;99.90;;;;;;4993988;28;20287;-51
2022/08/31 06:04:25;;;;;;;1.30;1.20;;;15.80;99.90;;;;;;4998977;28;20294;-51
2022/08/31 06:06:53;;;;;;;3.30;1.57;;;15.70;99.90;;;;;;5000634;28;20217;-48
2022/08/31 06:09:19;;;;;;;2.53;1.43;;;15.90;99.90;;;;;;4998519;28;20232;-51
2022/08/31 06:11:46;;;;;;;1.73;1.40;;;15.90;99.90;;;;;;5000776;28;20293;-50
2022/08/31 06:14:13;;;;;;;1.67;1.10;;;16.00;99.90;;;;;;4999699;28;20213;-50
2022/08/31 06:16:42;;;;;;;2.57;1.10;;;15.90;99.90;;;;;;4998774;28;20732;-50
2022/08/31 06:19:11;;;;;;;2.67;1.70;;;16.00;99.90;;;;;;4999259;28;20201;-50
2022/08/31 06:21:42;;;;;;;2.50;1.97;;;16.00;99.90;;;;;;4999029;28;20201;-50
2022/08/31 06:24:16;;;;;;;1.63;1.20;;;15.90;99.90;;;;;;5000514;28;20208;-51
2022/08/31 06:26:51;;;;;;;3.30;1.50;;;15.90;99.90;;;;;;4997486;28;20212;-49
2022/08/31 06:29:23;;;;;;;3.27;1.40;;;15.80;99.90;;;;;;4999428;28;20208;-50
2022/08/31 06:31:50;;;;;;;1.77;1.53;;;15.70;99.90;;;;;;4999347;28;20252;-50
2022/08/31 06:34:19;;;;;;;5.83;1.67;;;15.70;99.90;;;;;;5001156;28;20258;-49
2022/08/31 06:36:47;;;;;;;3.47;1.60;;;15.80;99.90;;;;;;5000318;28;20619;-50
2022/08/31 06:39:15;;;;;;;2.50;1.10;;;15.80;99.90;;;;;;4998534;28;20297;-50
2022/08/31 06:41:42;;;;;;;1.60;1.50;;;16.10;99.90;;;;;;5000986;28;20272;-51
2022/08/31 06:44:11;;;;;;;2.67;1.40;;;16.10;99.90;;;;;;4998738;28;20210;-49
2022/08/31 06:46:39;;;;;;;5.67;1.40;;;16.20;99.90;;;;;;4999321;28;20216;-50
2022/08/31 06:49:07;;;;;;;2.13;1.67;;;16.30;99.90;;;;;;4997006;28;20636;-51
2022/08/31 06:51:36;;;;;;;4.87;1.50;;;16.40;99.90;;;;;;4997522;28;20352;-48
2022/08/31 06:54:06;;;;;;;2.90;1.77;;;16.30;99.90;;;;;;5001245;28;20727;-50
2022/08/31 06:56:52;;;;;;;4.57;1.40;;;16.50;99.90;;;;;;5000075;28;20296;-50
2022/08/31 06:59:21;;;;;;;5.73;1.63;;;16.80;99.90;;;;;;4996514;28;20202;-50
2022/08/31 07:01:53;;;;;;;2.47;1.30;;;16.80;99.90;;;;;;4995624;28;20212;-50
2022/08/31 07:04:20;;;;;;;2.73;1.40;;;16.60;99.90;;;;;;4998575;28;20206;-50
2022/08/31 07:06:47;;;;;;;2.00;1.40;;;16.50;99.90;;;;;;4998440;28;20644;-49
2022/08/31 07:09:16;;;;;;;1.50;1.17;;;16.50;99.90;;;;;;4994304;28;20241;-50
2022/08/31 07:11:50;;;;;;;2.03;1.43;;;16.40;99.90;;;;;;5000663;28;20213;-50
2022/08/31 07:14:23;;;;;;;1.83;1.30;;;16.50;99.90;;;;;;4998894;28;20737;-50
2022/08/31 07:16:53;;;;;;;2.27;1.37;;;16.60;99.90;;;;;;4994738;28;20276;-49
2022/08/31 07:19:20;;;;;;;3.83;1.20;;;16.60;99.90;;;;;;4997917;28;20214;-50
2022/08/31 07:21:53;;;;;;;1.73;1.40;;;16.70;99.90;;;;;;4997479;28;20205;-51
2022/08/31 07:24:24;;;;;;;1.60;1.43;;;16.70;99.90;;;;;;4998597;28;20209;-51
2022/08/31 07:26:53;;;;;;;4.23;1.20;;;16.60;99.90;;;;;;4998877;28;20237;-50
2022/08/31 07:29:21;;;;;;;1.83;1.23;;;16.70;99.90;;;;;;4999081;28;20624;-49
2022/08/31 07:31:49;;;;;;;2.90;1.60;;;16.70;99.90;;;;;;4998603;28;20216;-51
2022/08/31 07:34:19;;;;;;;2.30;1.30;;;16.90;99.90;;;;;;4998730;28;20320;-51
2022/08/31 07:42:25;;;;;;;1.43;1.33;;;17.20;99.90;;;;;;4999139;28;20581;-51
2022/08/31 07:44:54;;;;;;;3.53;1.73;;;17.20;99.90;;;;;;4997435;28;20299;-51
2022/08/31 07:47:27;;;;;;;3.77;1.43;;;17.40;99.90;;;;;;4999135;28;20666;-49
2022/08/31 07:49:57;;;;;;;2.47;1.40;;;17.60;99.90;;;;;;4998266;28;20273;-52
2022/08/31 07:52:27;;;;;;;2.87;1.70;;;17.70;99.90;;;;;;4998783;28;20725;-50
2022/08/31 07:55:05;;;;;;;2.77;1.80;;;17.80;99.90;;;;;;4997605;28;20266;-50
2022/08/31 07:57:37;;;;;;;2.93;1.50;;;17.80;99.90;;;;;;4998352;28;20651;-51
2022/08/31 08:00:08;;;;;;;4.50;1.63;;;17.90;99.90;;;;;;4995704;28;20213;-51
2022/08/31 08:02:38;;;;;;;2.47;1.60;;;18.10;99.90;;;;;;4998696;28;20223;-50
2022/08/31 08:05:10;;;;;;;1.80;1.37;;;18.10;99.90;;;;;;4998039;28;20564;-51
2022/08/31 08:07:39;;;;;;;2.80;1.67;;;18.10;99.90;;;;;;4998129;28;20253;-51
2022/08/31 08:10:12;;;;;;;1.27;1.17;;;18.30;99.90;;;;;;4996056;28;20231;-52
2022/08/31 08:12:45;;;;;;;3.90;2.10;;;18.50;99.90;;;;;;5013433;28;20213;-50
2022/08/31 08:15:14;;;;;;;6.77;1.90;;;18.50;99.90;;;;;;4997806;28;20238;-50
2022/08/31 08:17:40;;;;;;;1.97;1.63;;;18.70;99.90;;;;;;4996806;28;20289;-52
2022/08/31 08:20:08;;;;;;;2.83;2.17;;;18.70;99.90;;;;;;4996573;28;20228;-51
2022/08/31 08:22:42;;;;;;;4.17;1.63;;;18.90;99.90;;;;;;4998708;28;20636;-51
2022/08/31 08:25:21;;;;;;;7.27;1.50;;;18.90;99.90;;;;;;4997781;28;20586;-51
2022/08/31 08:27:53;;;;;;;3.37;1.60;;;19.20;99.90;;;;;;4997960;28;20247;-52
2022/08/31 08:30:20;;;;;;;2.77;1.70;;;19.40;99.90;;;;;;4995627;28;20587;-50
2022/08/31 08:32:47;;;;;;;3.27;1.50;;;19.40;99.90;;;;;;4997381;28;20207;-50
2022/08/31 08:35:15;;;;;;;3.43;1.47;;;19.70;99.90;;;;;;4997816;28;20239;-50
2022/08/31 08:37:46;;;;;;;3.17;1.53;;;19.90;99.90;;;;;;4997498;28;20243;-51
2022/08/31 08:40:41;;;;;;;2.13;1.60;;;19.80;99.90;;;;;;4996880;28;20204;-50
2022/08/31 08:43:15;;;;;;;3.70;1.27;;;19.80;99.90;;;;;;4997584;28;20262;-50
2022/08/31 08:45:50;;;;;;;1.83;1.47;;;20.10;99.90;;;;;;4997657;28;20220;-49
2022/08/31 08:48:21;;;;;;;2.20;1.43;;;20.30;99.90;;;;;;4997196;28;20206;-51
2022/08/31 08:50:51;;;;;;;2.53;1.53;;;20.50;99.90;;;;;;4996146;28;20603;-51
2022/08/31 08:53:22;;;;;;;1.50;1.40;;;20.50;99.90;;;;;;4998132;28;20252;-50
2022/08/31 08:55:50;;;;;;;2.97;1.60;;;20.70;99.90;;;;;;4997534;28;20232;-49
2022/08/31 08:58:18;;;;;;;3.10;1.60;;;20.90;99.90;;;;;;4995767;28;20237;-50
2022/08/31 09:00:55;;;;;;;5.20;1.80;;;21.00;99.90;;;;;;4996253;28;20202;-49
2022/08/31 09:03:58;;;;;;;2.17;1.50;;;21.00;99.90;;;;;;4995057;28;20213;-50
2022/08/31 09:06:37;;;;;;;3.83;1.70;;;20.80;99.90;;;;;;4999907;28;20208;-51
2022/08/31 09:09:14;;;;;;;3.83;1.60;;;20.80;99.90;;;;;;5000779;28;20288;-50
2022/08/31 09:12:10;;;;;;;2.60;1.40;;;21.00;99.90;;;;;;5000328;28;20728;-51
2022/08/31 09:15:14;;;;;;;2.43;1.50;;;21.30;99.90;;;;;;5000941;28;20201;-52
2022/08/31 09:18:20;;;;;;;2.67;1.10;;;21.50;99.90;;;;;;4987261;28;20246;-49
2022/08/31 09:21:16;;;;;;;2.10;1.37;;;21.50;99.90;;;;;;4998580;28;20213;-51
2022/08/31 09:23:48;;;;;;;1.63;1.33;;;22.20;99.90;;;;;;5001384;28;20218;-52
2022/08/31 09:26:16;;;;;;;1.33;1.23;;;21.40;99.90;;;;;;4999918;28;20196;-52
2022/08/31 09:28:49;;;;;;;1.40;1.30;;;21.60;99.90;;;;;;5000560;28;20245;-51
2022/08/31 09:31:36;;;;;;;1.60;1.50;;;21.60;99.90;;;;;;5000163;28;20258;-51
2022/08/31 09:34:23;;;;;;;2.07;1.87;;;22.10;99.90;;;;;;4999741;28;20332;-51
2022/08/31 09:36:55;;;;;;;1.60;1.50;;;22.10;99.90;;;;;;5000920;28;20205;-53
2022/08/31 09:39:29;;;;;;;2.87;1.40;;;22.10;99.90;;;;;;5000290;28;20221;-52
2022/08/31 09:42:17;;;;;;;1.77;1.60;;;22.00;99.90;;;;;;5001776;28;20210;-51
2022/08/31 09:44:48;;;;;;;4.30;1.83;;;21.80;99.90;;;;;;5001503;28;20280;-51
2022/08/31 09:47:54;;;;;;;2.10;1.70;;;21.80;99.90;;;;;;5000274;28;20689;-52
2022/08/31 09:50:43;;;;;;;3.53;1.67;;;21.50;99.90;;;;;;4998844;28;20242;-51
2022/08/31 09:56:17;;;;;;;2.30;1.63;;;22.00;99.90;;;;;;5000227;28;20201;-52
2022/08/31 09:58:51;;;;;;;2.00;1.53;;;21.90;99.90;;;;;;5015397;28;20691;-50
2022/08/31 10:01:43;;;;;;;3.50;2.00;;;21.90;99.90;;;;;;5000012;28;20617;-49
2022/08/31 10:04:17;;;;;;;3.50;1.80;;;21.80;99.90;;;;;;5001600;28;20347;-52
2022/08/31 10:07:10;;;;;;;4.40;1.80;;;21.40;99.90;;;;;;4999875;28;20679;-51
2022/08/31 10:09:57;;;;;;;3.30;1.90;;;21.50;99.90;;;;;;4998432;28;20256;-50
2022/08/31 10:12:40;;;;;;;2.13;1.70;;;21.30;99.90;;;;;;5000130;28;20210;-53
2022/08/31 10:15:22;;;;;;;3.40;1.90;;;21.50;99.90;;;;;;5000177;28;20229;-50
2022/08/31 10:18:01;;;;;;;2.37;1.47;;;21.90;99.90;;;;;;4998933;28;20212;-51
2022/08/31 10:20:37;;;;;;;5.13;2.23;;;22.20;99.90;;;;;;5000180;28;20292;-52
2022/08/31 10:23:17;;;;;;;3.17;1.90;;;22.00;99.90;;;;;;5001177;28;20354;-51
2022/08/31 10:25:51;;;;;;;3.23;2.00;;;21.80;99.90;;;;;;4997807;28;20205;-51
2022/08/31 10:28:50;;;;;;;4.00;1.90;;;21.60;99.90;;;;;;4999414;28;20218;-54
2022/08/31 10:31:22;;;;;;;2.83;1.83;;;21.80;99.90;;;;;;4989163;28;20237;-54
2022/08/31 10:37:06;;;;;;;2.77;2.10;;;21.60;99.90;;;;;;4998695;28;20267;-54
2022/08/31 10:39:47;;;;;;;2.90;1.80;;;21.60;99.90;;;;;;4997417;28;20205;-54
2022/08/31 10:42:42;;;;;;;2.93;1.83;;;21.70;99.90;;;;;;4982645;28;20251;-56
2022/08/31 10:45:17;;;;;;;4.90;1.80;;;21.90;99.90;;;;;;4993002;28;20206;-55
2022/08/31 10:47:48;;;;;;;3.30;1.70;;;22.00;99.90;;;;;;4998648;28;20221;-54
2022/08/31 10:50:47;;;;;;;2.70;1.70;;;22.30;99.90;;;;;;4996179;28;20662;-54
2022/08/31 10:53:17;;;;;;;2.17;1.93;;;22.40;99.90;;;;;;4983264;28;20217;-54
2022/08/31 10:56:13;;;;;;;6.90;1.77;;;22.70;99.90;;;;;;4999017;28;20260;-54
2022/08/31 10:58:46;;;;;;;2.70;1.73;;;22.40;99.90;;;;;;4998028;28;20230;-53
2022/08/31 11:01:25;;;;;;;2.00;1.70;;;22.30;99.90;;;;;;4997977;28;20245;-54
2022/08/31 11:04:13;;;;;;;3.20;2.00;;;22.40;99.90;;;;;;4999957;28;20224;-54
2022/08/31 11:06:51;;;;;;;1.83;1.73;;;22.30;99.90;;;;;;4996039;28;20486;-57
2022/08/31 11:09:24;;;;;;;3.53;2.10;;;22.80;99.90;;;;;;4997841;28;20202;-56
2022/08/31 11:12:08;;;;;;;2.53;1.93;;;22.90;99.90;;;;;;5000325;28;20229;-56
2022/08/31 11:14:57;;;;;;;3.67;1.77;;;23.10;99.90;;;;;;4999582;28;20654;-56
2022/08/31 11:17:46;;;;;;;2.23;1.60;;;23.20;99.90;;;;;;4997947;28;20582;-55
2022/08/31 11:20:31;;;;;;;2.50;2.03;;;23.90;99.90;;;;;;4997525;28;20655;-56
2022/08/31 11:23:13;;;;;;;4.63;1.53;;;24.00;99.90;;;;;;4999597;28;20570;-55
2022/08/31 11:26:25;;;;;;;3.00;2.10;;;23.80;99.90;;;;;;4997844;28;20196;-55
2022/08/31 11:28:58;;;;;;;2.77;2.03;;;23.70;99.90;;;;;;4966116;28;20298;-54
2022/08/31 11:31:29;;;;;;;5.50;2.27;;;23.40;99.90;;;;;;4997175;28;20705;-55
2022/08/31 11:34:06;;;;;;;3.80;1.60;;;23.40;99.90;;;;;;4999095;28;20215;-55
2022/08/31 11:36:53;;;;;;;4.53;1.70;;;24.50;99.90;;;;;;4998202;28;20208;-55
2022/08/31 11:39:43;;;;;;;5.40;1.70;;;23.90;99.90;;;;;;4994829;28;20682;-55
2022/08/31 11:42:22;;;;;;;3.93;1.67;;;24.40;99.90;;;;;;5013948;28;20201;-54
2022/08/31 11:45:05;;;;;;;2.00;1.40;;;25.00;99.90;;;;;;5009066;28;20216;-55
2022/08/31 11:47:37;;;;;;;1.30;1.20;;;25.30;99.90;;;;;;4992452;28;20201;-55
2022/08/31 11:50:11;;;;;;;3.33;1.70;;;25.30;99.90;;;;;;4983902;28;20580;-54
2022/08/31 11:52:46;;;;;;;3.10;2.03;;;25.70;99.90;;;;;;4988789;28;20203;-55
2022/08/31 11:55:19;;;;;;;1.53;1.40;;;25.90;99.90;;;;;;4987908;28;20932;-54
2022/08/31 11:58:05;;;;;;;1.83;1.40;;;26.20;99.90;;;;;;4984778;28;20211;-55
2022/08/31 12:00:43;;;;;;;2.13;1.57;;;26.60;99.90;;;;;;4977936;28;20209;-53
2022/08/31 12:03:35;;;;;;;6.63;1.70;;;26.50;99.90;;;;;;4984670;28;20250;-55
2022/08/31 12:06:06;;;;;;;2.37;1.80;;;27.40;99.90;;;;;;4971028;28;20768;-54
2022/08/31 12:08:45;;;;;;;2.23;1.60;;;27.80;99.90;;;;;;4982018;28;20251;-54
2022/08/31 12:11:47;;;;;;;1.97;1.37;;;28.00;99.90;;;;;;4970968;28;20204;-55
2022/08/31 12:14:29;;;;;;;1.33;1.20;;;28.30;99.90;;;;;;4967070;28;22040;-55
2022/08/31 12:17:20;;;;;;;2.97;1.30;;;28.20;99.90;;;;;;4986522;28;20207;-55
2022/08/31 12:20:21;;;;;;;3.53;1.83;;;27.60;99.90;;;;;;4958388;28;20209;-55
2022/08/31 12:26:24;;;;;;;3.10;1.17;;;27.60;99.90;;;;;;4970897;28;21620;-56
2022/08/31 12:29:17;;;;;;;4.35;1.40;;;27.30;99.90;;;;;;4980705;28;20388;-55
2022/08/31 12:32:08;;;;;;;1.55;1.20;;;27.70;99.90;;;;;;4963196;28;20206;-55
2022/08/31 12:35:03;;;;;;;2.28;1.40;;;28.20;99.90;;;;;;4960576;28;20450;-57
2022/08/31 12:37:34;;;;;;;4.47;1.55;;;29.20;99.90;;;;;;4967845;28;20224;-57
2022/08/31 12:40:18;;;;;;;3.47;1.70;;;29.00;99.90;;;;;;4968505;28;20206;-56
2022/08/31 12:42:54;;;;;;;3.63;1.55;;;27.60;99.90;;;;;;4967739;28;20772;-55
2022/08/31 12:45:39;;;;;;;3.30;1.23;;;27.90;99.90;;;;;;4961021;28;20792;-55
2022/08/31 12:48:31;;;;;;;6.33;1.67;;;28.60;99.90;;;;;;4985645;28;20228;-56
2022/08/31 12:51:23;;;;;;;4.90;1.40;;;27.80;99.90;;;;;;4980681;28;20275;-55
2022/08/31 12:54:08;;;;;;;1.70;1.40;;;28.90;99.90;;;;;;5000690;28;20213;-55
2022/08/31 12:56:58;;;;;;;2.90;1.30;;;28.80;99.90;;;;;;5000846;28;20233;-54
2022/08/31 12:59:56;;;;;;;1.40;1.23;;;28.20;99.90;;;;;;4993876;28;20335;-55
2022/08/31 13:02:30;;;;;;;4.65;1.17;;;28.40;99.90;;;;;;4960574;28;20288;-57
2022/08/31 13:04:59;;;;;;;4.20;1.85;;;28.40;99.90;;;;;;4985796;28;21410;-56
2022/08/31 13:07:31;;;;;;;2.58;1.60;;;28.10;99.90;;;;;;4985471;28;20209;-56
2022/08/31 13:10:26;;;;;;;5.50;1.40;;;27.90;99.90;;;;;;4989813;28;21585;-56
2022/08/31 13:12:57;;;;;;;2.75;1.42;;;27.80;99.90;;;;;;4979678;28;20427;-55
2022/08/31 13:15:36;;;;;;;3.85;1.85;;;28.70;99.90;;;;;;4985755;28;20221;-55
2022/08/31 13:18:23;;;;;;;3.03;1.50;;;28.80;99.90;;;;;;4988282;28;20209;-55
2022/08/31 13:20:55;;;;;;;3.83;1.52;;;27.90;99.90;;;;;;4991101;28;20515;-56
2022/08/31 13:23:28;;;;;;;4.43;1.60;;;27.90;99.90;;;;;;4988221;28;20301;-56
2022/08/31 13:26:13;;;;;;;5.03;1.80;;;27.70;99.90;;;;;;4992317;28;21840;-55
2022/08/31 13:28:40;;;;;;;2.40;1.65;;;27.40;99.90;;;;;;4982482;28;20224;-55
2022/08/31 13:31:08;;;;;;;7.35;1.80;;;27.90;99.90;;;;;;4983085;28;20289;-55
2022/08/31 13:33:39;;;;;;;1.98;1.40;;;27.30;99.90;;;;;;4992528;28;20216;-55
2022/08/31 13:36:30;;;;;;;2.67;1.48;;;26.50;99.90;;;;;;5018520;28;20233;-55